sensor_id;sensor_type;location;lat;lon;timestamp;pressure;altitude;pressure_sealevel;temperature;humidity
21545;BME280;10933;50.754;11.508;2024-02-04T00:00:09;100032.09;;;8.32;100.00
21545;BME280;10933;50.754;11.508;2024-02-04T00:02:36;100034.50;;;8.21;100.00
21545;BME280;10933;50.754;11.508;2024-02-04T00:05:04;100034.66;;;8.26;100.00
21545;BME280;10933;50.754;11.508;2024-02-04T00:07:30;100023.69;;;8.28;100.00
21545;BME280;10933;50.754;11.508;2024-02-04T00:09:56;100015.97;;;8.32;100.00
21545;BME280;10933;50.754;11.508;2024-02-04T00:12:22;100006.88;;;8.33;100.00
21545;BME280;10933;50.754;11.508;2024-02-04T00:14:48;100011.06;;;8.29;100.00
21545;BME280;10933;50.754;11.508;2024-02-04T00:17:16;100004.47;;;8.24;100.00
21545;BME280;10933;50.754;11.508;2024-02-04T00:19:42;100016.72;;;8.20;100.00
21545;BME280;10933;50.754;11.508;2024-02-04T00:22:08;100018.06;;;8.30;100.00
21545;BME280;10933;50.754;11.508;2024-02-04T00:24:35;100012.84;;;8.16;100.00
21545;BME280;10933;50.754;11.508;2024-02-04T00:27:01;100017.91;;;8.06;100.00
21545;BME280;10933;50.754;11.508;2024-02-04T00:29:27;100010.44;;;8.08;100.00
21545;BME280;10933;50.754;11.508;2024-02-04T00:31:53;100001.28;;;8.16;100.00
21545;BME280;10933;50.754;11.508;2024-02-04T00:34:20;100014.13;;;8.14;100.00
21545;BME280;10933;50.754;11.508;2024-02-04T00:36:46;100006.78;;;8.21;100.00
21545;BME280;10933;50.754;11.508;2024-02-04T00:39:12;100003.44;;;8.25;100.00
21545;BME280;10933;50.754;11.508;2024-02-04T00:41:38;99994.72;;;8.30;100.00
21545;BME280;10933;50.754;11.508;2024-02-04T00:44:04;99981.28;;;8.30;100.00
21545;BME280;10933;50.754;11.508;2024-02-04T00:46:30;99971.78;;;8.46;100.00
21545;BME280;10933;50.754;11.508;2024-02-04T00:48:56;99968.38;;;8.39;100.00
21545;BME280;10933;50.754;11.508;2024-02-04T00:51:22;99953.09;;;8.51;100.00
21545;BME280;10933;50.754;11.508;2024-02-04T00:53:48;99944.31;;;8.44;100.00
21545;BME280;10933;50.754;11.508;2024-02-04T00:56:14;99933.25;;;8.52;100.00
21545;BME280;10933;50.754;11.508;2024-02-04T00:58:40;99927.97;;;8.27;100.00
21545;BME280;10933;50.754;11.508;2024-02-04T01:01:07;99918.63;;;8.30;100.00
21545;BME280;10933;50.754;11.508;2024-02-04T01:03:33;99918.94;;;8.21;100.00
21545;BME280;10933;50.754;11.508;2024-02-04T01:05:59;99930.66;;;8.27;100.00
21545;BME280;10933;50.754;11.508;2024-02-04T01:08:25;99940.06;;;8.18;100.00
21545;BME280;10933;50.754;11.508;2024-02-04T01:10:51;99932.69;;;8.13;100.00
21545;BME280;10933;50.754;11.508;2024-02-04T01:13:18;99944.16;;;8.20;100.00
21545;BME280;10933;50.754;11.508;2024-02-04T01:15:44;99939.59;;;8.21;100.00
21545;BME280;10933;50.754;11.508;2024-02-04T01:18:10;99922.66;;;8.20;100.00
21545;BME280;10933;50.754;11.508;2024-02-04T01:20:36;99925.06;;;8.29;100.00
21545;BME280;10933;50.754;11.508;2024-02-04T01:23:02;99930.44;;;8.29;100.00
21545;BME280;10933;50.754;11.508;2024-02-04T01:25:28;99931.47;;;8.27;100.00
21545;BME280;10933;50.754;11.508;2024-02-04T01:27:54;99937.44;;;8.30;100.00
21545;BME280;10933;50.754;11.508;2024-02-04T01:30:20;99931.25;;;8.29;100.00
21545;BME280;10933;50.754;11.508;2024-02-04T01:32:47;99926.69;;;8.11;100.00
21545;BME280;10933;50.754;11.508;2024-02-04T01:35:13;99942.22;;;8.09;100.00
21545;BME280;10933;50.754;11.508;2024-02-04T01:37:41;99941.34;;;8.15;100.00
21545;BME280;10933;50.754;11.508;2024-02-04T01:40:09;99933.19;;;8.22;100.00
21545;BME280;10933;50.754;11.508;2024-02-04T01:42:35;99919.75;;;8.22;100.00
21545;BME280;10933;50.754;11.508;2024-02-04T01:45:02;99925.81;;;8.17;100.00
21545;BME280;10933;50.754;11.508;2024-02-04T01:47:28;99930.00;;;8.13;100.00
21545;BME280;10933;50.754;11.508;2024-02-04T01:49:54;99937.00;;;7.96;100.00
21545;BME280;10933;50.754;11.508;2024-02-04T01:52:20;99947.69;;;8.03;100.00
21545;BME280;10933;50.754;11.508;2024-02-04T01:54:47;99951.63;;;8.00;100.00
21545;BME280;10933;50.754;11.508;2024-02-04T01:57:14;99955.44;;;8.11;100.00
21545;BME280;10933;50.754;11.508;2024-02-04T01:59:40;99952.63;;;8.06;100.00
21545;BME280;10933;50.754;11.508;2024-02-04T02:02:07;99952.16;;;8.09;100.00
21545;BME280;10933;50.754;11.508;2024-02-04T02:04:33;99954.03;;;8.08;100.00
21545;BME280;10933;50.754;11.508;2024-02-04T02:06:59;99946.13;;;8.13;100.00
21545;BME280;10933;50.754;11.508;2024-02-04T02:09:26;99942.81;;;8.30;100.00
21545;BME280;10933;50.754;11.508;2024-02-04T02:12:04;99923.28;;;8.41;100.00
21545;BME280;10933;50.754;11.508;2024-02-04T02:14:35;99893.75;;;8.52;100.00
21545;BME280;10933;50.754;11.508;2024-02-04T02:17:07;99884.88;;;8.64;100.00
21545;BME280;10933;50.754;11.508;2024-02-04T02:22:29;99864.94;;;8.41;100.00
21545;BME280;10933;50.754;11.508;2024-02-04T02:24:59;99854.34;;;8.58;100.00
21545;BME280;10933;50.754;11.508;2024-02-04T02:27:27;99842.41;;;8.24;100.00
21545;BME280;10933;50.754;11.508;2024-02-04T02:29:53;99855.53;;;8.32;100.00
21545;BME280;10933;50.754;11.508;2024-02-04T02:32:19;99864.84;;;8.48;100.00
21545;BME280;10933;50.754;11.508;2024-02-04T02:34:46;99842.50;;;8.47;100.00
21545;BME280;10933;50.754;11.508;2024-02-04T02:37:29;99837.25;;;8.41;100.00
21545;BME280;10933;50.754;11.508;2024-02-04T02:40:16;99825.69;;;8.64;100.00
21545;BME280;10933;50.754;11.508;2024-02-04T02:42:48;99821.53;;;8.68;100.00
21545;BME280;10933;50.754;11.508;2024-02-04T02:45:16;99811.09;;;8.71;100.00
21545;BME280;10933;50.754;11.508;2024-02-04T02:47:43;99794.72;;;8.73;100.00
21545;BME280;10933;50.754;11.508;2024-02-04T02:50:10;99779.66;;;8.83;100.00
21545;BME280;10933;50.754;11.508;2024-02-04T02:52:37;99770.78;;;8.83;100.00
21545;BME280;10933;50.754;11.508;2024-02-04T02:55:03;99767.50;;;8.81;100.00
21545;BME280;10933;50.754;11.508;2024-02-04T02:57:30;99765.50;;;8.76;100.00
21545;BME280;10933;50.754;11.508;2024-02-04T02:59:56;99761.31;;;8.80;100.00
21545;BME280;10933;50.754;11.508;2024-02-04T03:02:22;99743.53;;;8.79;100.00
21545;BME280;10933;50.754;11.508;2024-02-04T03:04:48;99743.97;;;8.88;100.00
21545;BME280;10933;50.754;11.508;2024-02-04T03:07:14;99722.00;;;8.91;100.00
21545;BME280;10933;50.754;11.508;2024-02-04T03:09:40;99727.63;;;8.78;100.00
21545;BME280;10933;50.754;11.508;2024-02-04T03:12:06;99723.31;;;8.77;100.00
21545;BME280;10933;50.754;11.508;2024-02-04T03:14:32;99712.16;;;8.97;100.00
21545;BME280;10933;50.754;11.508;2024-02-04T03:16:58;99694.38;;;8.96;100.00
21545;BME280;10933;50.754;11.508;2024-02-04T03:19:25;99681.03;;;9.01;100.00
21545;BME280;10933;50.754;11.508;2024-02-04T03:21:51;99652.91;;;9.20;100.00
21545;BME280;10933;50.754;11.508;2024-02-04T03:24:17;99622.91;;;9.28;100.00
21545;BME280;10933;50.754;11.508;2024-02-04T03:26:43;99614.06;;;9.16;100.00
21545;BME280;10933;50.754;11.508;2024-02-04T03:29:09;99596.13;;;9.22;100.00
21545;BME280;10933;50.754;11.508;2024-02-04T03:31:35;99585.25;;;9.28;100.00
21545;BME280;10933;50.754;11.508;2024-02-04T03:34:01;99579.84;;;9.28;100.00
21545;BME280;10933;50.754;11.508;2024-02-04T03:36:27;99582.44;;;9.23;100.00
21545;BME280;10933;50.754;11.508;2024-02-04T03:38:53;99596.56;;;9.02;100.00
21545;BME280;10933;50.754;11.508;2024-02-04T03:41:20;99603.59;;;9.03;100.00
21545;BME280;10933;50.754;11.508;2024-02-04T03:43:46;99613.38;;;9.09;100.00
21545;BME280;10933;50.754;11.508;2024-02-04T03:46:16;99613.25;;;9.16;100.00
21545;BME280;10933;50.754;11.508;2024-02-04T03:48:43;99609.59;;;9.22;100.00
21545;BME280;10933;50.754;11.508;2024-02-04T03:51:14;99613.91;;;9.23;100.00
21545;BME280;10933;50.754;11.508;2024-02-04T03:53:40;99606.81;;;9.45;100.00
21545;BME280;10933;50.754;11.508;2024-02-04T03:56:06;99589.06;;;9.32;100.00
21545;BME280;10933;50.754;11.508;2024-02-04T03:58:33;99582.94;;;9.20;100.00
21545;BME280;10933;50.754;11.508;2024-02-04T04:00:59;99577.72;;;9.30;100.00
21545;BME280;10933;50.754;11.508;2024-02-04T04:03:26;99567.91;;;9.24;100.00
21545;BME280;10933;50.754;11.508;2024-02-04T04:05:54;99577.22;;;9.17;100.00
21545;BME280;10933;50.754;11.508;2024-02-04T04:08:20;99570.53;;;9.19;100.00
21545;BME280;10933;50.754;11.508;2024-02-04T04:10:46;99548.50;;;9.22;100.00
21545;BME280;10933;50.754;11.508;2024-02-04T04:13:13;99542.16;;;9.28;100.00
21545;BME280;10933;50.754;11.508;2024-02-04T04:15:40;99551.06;;;9.00;100.00
21545;BME280;10933;50.754;11.508;2024-02-04T04:18:08;99554.13;;;9.21;100.00
21545;BME280;10933;50.754;11.508;2024-02-04T04:20:34;99564.63;;;9.05;100.00
21545;BME280;10933;50.754;11.508;2024-02-04T04:23:00;99557.94;;;9.08;100.00
21545;BME280;10933;50.754;11.508;2024-02-04T04:25:26;99561.97;;;9.22;100.00
21545;BME280;10933;50.754;11.508;2024-02-04T04:27:52;99567.19;;;9.00;100.00
21545;BME280;10933;50.754;11.508;2024-02-04T04:30:18;99571.59;;;8.90;100.00
21545;BME280;10933;50.754;11.508;2024-02-04T04:32:44;99578.44;;;8.97;100.00
21545;BME280;10933;50.754;11.508;2024-02-04T04:35:10;99586.75;;;8.96;100.00
21545;BME280;10933;50.754;11.508;2024-02-04T04:37:36;99591.00;;;8.92;100.00
21545;BME280;10933;50.754;11.508;2024-02-04T04:40:02;99586.75;;;8.96;100.00
21545;BME280;10933;50.754;11.508;2024-02-04T04:42:28;99601.13;;;9.01;100.00
21545;BME280;10933;50.754;11.508;2024-02-04T04:44:54;99600.13;;;8.91;100.00
21545;BME280;10933;50.754;11.508;2024-02-04T04:47:20;99616.59;;;8.94;100.00
21545;BME280;10933;50.754;11.508;2024-02-04T04:49:47;99622.56;;;8.96;100.00
21545;BME280;10933;50.754;11.508;2024-02-04T04:52:13;99625.72;;;8.93;100.00
21545;BME280;10933;50.754;11.508;2024-02-04T04:54:40;99619.63;;;8.98;100.00
21545;BME280;10933;50.754;11.508;2024-02-04T04:57:06;99627.28;;;8.77;100.00
21545;BME280;10933;50.754;11.508;2024-02-04T04:59:32;99637.56;;;8.80;100.00
21545;BME280;10933;50.754;11.508;2024-02-04T05:01:58;99645.19;;;8.72;100.00
21545;BME280;10933;50.754;11.508;2024-02-04T05:04:24;99662.59;;;8.69;100.00
21545;BME280;10933;50.754;11.508;2024-02-04T05:06:51;99678.75;;;8.69;100.00
21545;BME280;10933;50.754;11.508;2024-02-04T05:09:17;99677.47;;;8.60;100.00
21545;BME280;10933;50.754;11.508;2024-02-04T05:11:43;99703.28;;;8.61;100.00
21545;BME280;10933;50.754;11.508;2024-02-04T05:14:09;99714.19;;;8.66;100.00
21545;BME280;10933;50.754;11.508;2024-02-04T05:16:36;99728.88;;;8.64;100.00
21545;BME280;10933;50.754;11.508;2024-02-04T05:19:02;99746.31;;;8.61;100.00
21545;BME280;10933;50.754;11.508;2024-02-04T05:21:28;99753.31;;;8.62;100.00
21545;BME280;10933;50.754;11.508;2024-02-04T05:23:54;99764.47;;;8.66;100.00
21545;BME280;10933;50.754;11.508;2024-02-04T05:26:21;99772.88;;;8.58;100.00
21545;BME280;10933;50.754;11.508;2024-02-04T05:28:47;99788.44;;;8.67;100.00
21545;BME280;10933;50.754;11.508;2024-02-04T05:31:13;99791.34;;;8.54;100.00
21545;BME280;10933;50.754;11.508;2024-02-04T05:33:39;99794.72;;;8.61;100.00
21545;BME280;10933;50.754;11.508;2024-02-04T05:36:05;99779.88;;;8.70;100.00
21545;BME280;10933;50.754;11.508;2024-02-04T05:38:31;99772.28;;;8.67;100.00
21545;BME280;10933;50.754;11.508;2024-02-04T05:40:57;99767.16;;;8.77;100.00
21545;BME280;10933;50.754;11.508;2024-02-04T05:43:24;99758.47;;;8.75;100.00
21545;BME280;10933;50.754;11.508;2024-02-04T05:45:50;99746.22;;;8.79;100.00
21545;BME280;10933;50.754;11.508;2024-02-04T05:48:16;99729.94;;;8.74;100.00
21545;BME280;10933;50.754;11.508;2024-02-04T05:50:42;99736.38;;;8.85;100.00
21545;BME280;10933;50.754;11.508;2024-02-04T05:53:08;99710.78;;;8.82;100.00
21545;BME280;10933;50.754;11.508;2024-02-04T05:55:34;99696.84;;;8.85;100.00
21545;BME280;10933;50.754;11.508;2024-02-04T05:58:00;99687.63;;;8.81;100.00
21545;BME280;10933;50.754;11.508;2024-02-04T06:00:27;99690.88;;;8.83;100.00
21545;BME280;10933;50.754;11.508;2024-02-04T06:02:53;99682.66;;;9.02;100.00
21545;BME280;10933;50.754;11.508;2024-02-04T06:05:19;99696.38;;;8.89;100.00
21545;BME280;10933;50.754;11.508;2024-02-04T06:07:45;99677.09;;;8.92;100.00
21545;BME280;10933;50.754;11.508;2024-02-04T06:10:11;99663.25;;;9.00;100.00
21545;BME280;10933;50.754;11.508;2024-02-04T06:12:37;99648.63;;;9.07;100.00
21545;BME280;10933;50.754;11.508;2024-02-04T06:15:12;99649.56;;;9.01;100.00
21545;BME280;10933;50.754;11.508;2024-02-04T06:17:40;99618.44;;;9.05;100.00
21545;BME280;10933;50.754;11.508;2024-02-04T06:20:06;99600.50;;;9.11;100.00
21545;BME280;10933;50.754;11.508;2024-02-04T06:22:35;99601.81;;;9.08;100.00
21545;BME280;10933;50.754;11.508;2024-02-04T06:25:02;99567.28;;;9.17;100.00
21545;BME280;10933;50.754;11.508;2024-02-04T06:27:28;99562.25;;;9.09;100.00
21545;BME280;10933;50.754;11.508;2024-02-04T06:29:54;99550.44;;;9.10;100.00
21545;BME280;10933;50.754;11.508;2024-02-04T06:32:21;99544.91;;;9.17;100.00
21545;BME280;10933;50.754;11.508;2024-02-04T06:34:47;99536.09;;;9.21;100.00
21545;BME280;10933;50.754;11.508;2024-02-04T06:37:13;99552.56;;;9.08;100.00
21545;BME280;10933;50.754;11.508;2024-02-04T06:39:39;99547.38;;;9.18;100.00
21545;BME280;10933;50.754;11.508;2024-02-04T06:42:05;99547.38;;;9.18;100.00
21545;BME280;10933;50.754;11.508;2024-02-04T06:44:31;99539.19;;;9.13;100.00
21545;BME280;10933;50.754;11.508;2024-02-04T06:46:57;99550.13;;;9.23;100.00
21545;BME280;10933;50.754;11.508;2024-02-04T06:49:23;99546.78;;;9.16;100.00
21545;BME280;10933;50.754;11.508;2024-02-04T06:51:49;99556.31;;;9.07;100.00
21545;BME280;10933;50.754;11.508;2024-02-04T06:54:17;99565.72;;;9.21;100.00
21545;BME280;10933;50.754;11.508;2024-02-04T06:56:43;99563.09;;;9.26;100.00
21545;BME280;10933;50.754;11.508;2024-02-04T06:59:09;99546.88;;;9.21;100.00
21545;BME280;10933;50.754;11.508;2024-02-04T07:01:35;99561.59;;;9.30;100.00
21545;BME280;10933;50.754;11.508;2024-02-04T07:04:01;99557.59;;;9.33;100.00
21545;BME280;10933;50.754;11.508;2024-02-04T07:06:27;99561.34;;;9.32;100.00
21545;BME280;10933;50.754;11.508;2024-02-04T07:08:54;99548.00;;;9.25;100.00
21545;BME280;10933;50.754;11.508;2024-02-04T07:11:20;99570.81;;;9.06;100.00
21545;BME280;10933;50.754;11.508;2024-02-04T07:13:46;99574.56;;;9.05;100.00
21545;BME280;10933;50.754;11.508;2024-02-04T07:16:13;99596.13;;;9.22;100.00
21545;BME280;10933;50.754;11.508;2024-02-04T07:18:39;99593.69;;;9.20;100.00
21545;BME280;10933;50.754;11.508;2024-02-04T07:21:05;99595.41;;;9.26;100.00
21545;BME280;10933;50.754;11.508;2024-02-04T07:23:31;99584.53;;;9.04;100.00
21545;BME280;10933;50.754;11.508;2024-02-04T07:25:57;99597.25;;;9.09;100.00
21545;BME280;10933;50.754;11.508;2024-02-04T07:28:23;99600.09;;;9.02;100.00
21545;BME280;10933;50.754;11.508;2024-02-04T07:30:49;99611.50;;;9.09;100.00
21545;BME280;10933;50.754;11.508;2024-02-04T07:33:15;99618.00;;;9.25;100.00
21545;BME280;10933;50.754;11.508;2024-02-04T07:35:41;99616.53;;;9.18;100.00
21545;BME280;10933;50.754;11.508;2024-02-04T07:38:07;99611.47;;;9.21;100.00
21545;BME280;10933;50.754;11.508;2024-02-04T07:40:33;99615.31;;;9.25;100.00
21545;BME280;10933;50.754;11.508;2024-02-04T07:42:59;99604.66;;;9.30;100.00
21545;BME280;10933;50.754;11.508;2024-02-04T07:45:25;99585.75;;;9.42;100.00
21545;BME280;10933;50.754;11.508;2024-02-04T07:47:52;99572.84;;;9.44;100.00
21545;BME280;10933;50.754;11.508;2024-02-04T07:50:18;99568.91;;;9.35;100.00
21545;BME280;10933;50.754;11.508;2024-02-04T07:52:44;99562.34;;;9.42;100.00
21545;BME280;10933;50.754;11.508;2024-02-04T07:55:10;99554.75;;;9.56;100.00
21545;BME280;10933;50.754;11.508;2024-02-04T07:57:36;99560.63;;;9.70;100.00
21545;BME280;10933;50.754;11.508;2024-02-04T08:00:02;99543.56;;;9.48;100.00
21545;BME280;10933;50.754;11.508;2024-02-04T08:02:31;99537.13;;;9.49;100.00
21545;BME280;10933;50.754;11.508;2024-02-04T08:04:57;99542.50;;;9.49;100.00
21545;BME280;10933;50.754;11.508;2024-02-04T08:07:23;99538.16;;;9.64;100.00
21545;BME280;10933;50.754;11.508;2024-02-04T08:09:49;99548.88;;;9.59;100.00
21545;BME280;10933;50.754;11.508;2024-02-04T08:12:17;99543.66;;;9.69;100.00
21545;BME280;10933;50.754;11.508;2024-02-04T08:14:43;99536.66;;;9.68;100.00
21545;BME280;10933;50.754;11.508;2024-02-04T08:17:09;99540.06;;;9.64;100.00
21545;BME280;10933;50.754;11.508;2024-02-04T08:19:35;99538.53;;;9.68;100.00
21545;BME280;10933;50.754;11.508;2024-02-04T08:22:01;99537.09;;;9.65;100.00
21545;BME280;10933;50.754;11.508;2024-02-04T08:24:27;99546.09;;;9.71;100.00
21545;BME280;10933;50.754;11.508;2024-02-04T08:26:55;99548.63;;;9.61;100.00
21545;BME280;10933;50.754;11.508;2024-02-04T08:29:21;99557.34;;;9.51;100.00
21545;BME280;10933;50.754;11.508;2024-02-04T08:31:47;99560.53;;;9.31;100.00
21545;BME280;10933;50.754;11.508;2024-02-04T08:34:13;99573.25;;;9.36;100.00
21545;BME280;10933;50.754;11.508;2024-02-04T08:36:39;99580.75;;;9.51;100.00
21545;BME280;10933;50.754;11.508;2024-02-04T08:39:05;99568.28;;;9.44;100.00
21545;BME280;10933;50.754;11.508;2024-02-04T08:41:32;99570.97;;;9.44;100.00
21545;BME280;10933;50.754;11.508;2024-02-04T08:43:58;99584.69;;;9.43;100.00
21545;BME280;10933;50.754;11.508;2024-02-04T08:46:24;99585.00;;;9.47;100.00
21545;BME280;10933;50.754;11.508;2024-02-04T08:48:50;99596.28;;;9.60;100.00
21545;BME280;10933;50.754;11.508;2024-02-04T08:51:16;99571.31;;;9.48;100.00
21545;BME280;10933;50.754;11.508;2024-02-04T08:53:44;99550.69;;;9.70;100.00
21545;BME280;10933;50.754;11.508;2024-02-04T08:56:10;99552.94;;;9.62;100.00
21545;BME280;10933;50.754;11.508;2024-02-04T08:58:36;99540.72;;;9.71;100.00
21545;BME280;10933;50.754;11.508;2024-02-04T09:01:04;99530.97;;;9.87;100.00
21545;BME280;10933;50.754;11.508;2024-02-04T09:03:30;99512.78;;;9.94;100.00
21545;BME280;10933;50.754;11.508;2024-02-04T09:05:57;99514.56;;;10.05;100.00
21545;BME280;10933;50.754;11.508;2024-02-04T09:08:23;99507.16;;;10.34;100.00
21545;BME280;10933;50.754;11.508;2024-02-04T09:10:49;99489.78;;;10.25;100.00
21545;BME280;10933;50.754;11.508;2024-02-04T09:13:15;99502.75;;;10.28;100.00
21545;BME280;10933;50.754;11.508;2024-02-04T09:15:41;99474.16;;;10.27;100.00
21545;BME280;10933;50.754;11.508;2024-02-04T09:18:08;99475.78;;;10.28;100.00
21545;BME280;10933;50.754;11.508;2024-02-04T09:20:34;99479.06;;;10.30;100.00
21545;BME280;10933;50.754;11.508;2024-02-04T09:23:00;99486.19;;;10.41;100.00
21545;BME280;10933;50.754;11.508;2024-02-04T09:25:26;99514.84;;;10.25;100.00
21545;BME280;10933;50.754;11.508;2024-02-04T09:27:52;99523.34;;;10.34;100.00
21545;BME280;10933;50.754;11.508;2024-02-04T09:30:18;99525.72;;;10.52;100.00
21545;BME280;10933;50.754;11.508;2024-02-04T09:32:44;99526.34;;;10.38;100.00
21545;BME280;10933;50.754;11.508;2024-02-04T09:35:10;99552.38;;;10.49;100.00
21545;BME280;10933;50.754;11.508;2024-02-04T09:37:36;99562.59;;;10.47;100.00
21545;BME280;10933;50.754;11.508;2024-02-04T09:40:03;99579.16;;;10.55;100.00
21545;BME280;10933;50.754;11.508;2024-02-04T09:42:30;99588.94;;;10.61;100.00
21545;BME280;10933;50.754;11.508;2024-02-04T09:44:57;99595.47;;;10.66;100.00
21545;BME280;10933;50.754;11.508;2024-02-04T09:47:24;99599.94;;;10.77;100.00
21545;BME280;10933;50.754;11.508;2024-02-04T09:49:50;99617.13;;;10.71;100.00
21545;BME280;10933;50.754;11.508;2024-02-04T09:52:27;99629.13;;;10.80;100.00
21545;BME280;10933;50.754;11.508;2024-02-04T09:55:00;99647.41;;;10.95;100.00
21545;BME280;10933;50.754;11.508;2024-02-04T09:57:28;99658.00;;;11.01;100.00
21545;BME280;10933;50.754;11.508;2024-02-04T09:59:55;99664.88;;;10.92;100.00
21545;BME280;10933;50.754;11.508;2024-02-04T10:02:21;99663.94;;;11.03;100.00
21545;BME280;10933;50.754;11.508;2024-02-04T10:04:49;99677.91;;;10.95;100.00
21545;BME280;10933;50.754;11.508;2024-02-04T10:07:15;99683.41;;;10.83;100.00
21545;BME280;10933;50.754;11.508;2024-02-04T10:09:43;99694.72;;;10.80;100.00
21545;BME280;10933;50.754;11.508;2024-02-04T10:12:09;99707.03;;;10.93;100.00
21545;BME280;10933;50.754;11.508;2024-02-04T10:14:36;99736.56;;;10.83;100.00
21545;BME280;10933;50.754;11.508;2024-02-04T10:17:03;99742.41;;;10.97;100.00
21545;BME280;10933;50.754;11.508;2024-02-04T10:19:30;99743.59;;;10.84;100.00
21545;BME280;10933;50.754;11.508;2024-02-04T10:22:03;99762.91;;;11.14;100.00
21545;BME280;10933;50.754;11.508;2024-02-04T10:24:29;99770.38;;;10.90;100.00
21545;BME280;10933;50.754;11.508;2024-02-04T10:26:56;99769.91;;;10.94;100.00
21545;BME280;10933;50.754;11.508;2024-02-04T10:29:26;99774.84;;;11.18;100.00
21545;BME280;10933;50.754;11.508;2024-02-04T10:31:55;99773.25;;;11.01;100.00
21545;BME280;10933;50.754;11.508;2024-02-04T10:34:25;99781.31;;;11.17;100.00
21545;BME280;10933;50.754;11.508;2024-02-04T10:36:51;99778.69;;;11.23;100.00
21545;BME280;10933;50.754;11.508;2024-02-04T10:39:17;99801.78;;;11.13;100.00
21545;BME280;10933;50.754;11.508;2024-02-04T10:41:51;99784.63;;;10.86;100.00
21545;BME280;10933;50.754;11.508;2024-02-04T10:44:21;99785.75;;;10.90;100.00
21545;BME280;10933;50.754;11.508;2024-02-04T10:46:48;99793.09;;;11.11;100.00
21545;BME280;10933;50.754;11.508;2024-02-04T10:49:16;99787.84;;;10.83;100.00
21545;BME280;10933;50.754;11.508;2024-02-04T10:51:43;99791.41;;;10.88;100.00
21545;BME280;10933;50.754;11.508;2024-02-04T10:54:14;99783.31;;;11.05;100.00
21545;BME280;10933;50.754;11.508;2024-02-04T10:56:45;99796.16;;;10.98;100.00
21545;BME280;10933;50.754;11.508;2024-02-04T10:59:14;99774.72;;;10.91;100.00
21545;BME280;10933;50.754;11.508;2024-02-04T11:01:43;99797.31;;;10.85;100.00
21545;BME280;10933;50.754;11.508;2024-02-04T11:04:11;99803.59;;;11.08;100.00
21545;BME280;10933;50.754;11.508;2024-02-04T11:06:38;99799.19;;;10.85;100.00
21545;BME280;10933;50.754;11.508;2024-02-04T11:09:06;99799.91;;;10.97;100.00
21545;BME280;10933;50.754;11.508;2024-02-04T11:11:36;99802.13;;;11.00;100.00
21545;BME280;10933;50.754;11.508;2024-02-04T11:14:04;99784.13;;;10.89;100.00
21545;BME280;10933;50.754;11.508;2024-02-04T11:25:11;99772.47;;;10.83;100.00
21545;BME280;10933;50.754;11.508;2024-02-04T11:27:43;99780.94;;;10.92;100.00
21545;BME280;10933;50.754;11.508;2024-02-04T11:30:10;99779.75;;;10.83;100.00
21545;BME280;10933;50.754;11.508;2024-02-04T11:32:36;99773.53;;;10.82;100.00
21545;BME280;10933;50.754;11.508;2024-02-04T11:35:03;99763.72;;;10.76;100.00
21545;BME280;10933;50.754;11.508;2024-02-04T11:37:33;99745.47;;;10.67;100.00
21545;BME280;10933;50.754;11.508;2024-02-04T11:39:59;99765.34;;;10.94;100.00
21545;BME280;10933;50.754;11.508;2024-02-04T11:42:31;99767.84;;;11.01;100.00
21545;BME280;10933;50.754;11.508;2024-02-04T11:45:08;99762.88;;;10.76;100.00
21545;BME280;10933;50.754;11.508;2024-02-04T11:47:35;99754.72;;;10.71;100.00
21545;BME280;10933;50.754;11.508;2024-02-04T11:50:03;99754.63;;;10.66;100.00
21545;BME280;10933;50.754;11.508;2024-02-04T11:52:29;99756.94;;;10.74;100.00
21545;BME280;10933;50.754;11.508;2024-02-04T11:54:56;99751.47;;;10.69;100.00
21545;BME280;10933;50.754;11.508;2024-02-04T11:57:23;99753.25;;;10.80;100.00
21545;BME280;10933;50.754;11.508;2024-02-04T11:59:50;99755.25;;;10.89;100.00
21545;BME280;10933;50.754;11.508;2024-02-04T12:02:17;99755.84;;;10.75;100.00
21545;BME280;10933;50.754;11.508;2024-02-04T12:04:47;99739.41;;;10.93;100.00
21545;BME280;10933;50.754;11.508;2024-02-04T12:07:14;99729.53;;;10.82;100.00
21545;BME280;10933;50.754;11.508;2024-02-04T12:09:41;99738.03;;;10.74;100.00
21545;BME280;10933;50.754;11.508;2024-02-04T12:12:08;99739.81;;;10.85;100.00
21545;BME280;10933;50.754;11.508;2024-02-04T12:14:36;99724.81;;;10.72;100.00
21545;BME280;10933;50.754;11.508;2024-02-04T12:17:11;99738.34;;;10.94;100.00
21545;BME280;10933;50.754;11.508;2024-02-04T12:19:38;99743.09;;;10.87;100.00
21545;BME280;10933;50.754;11.508;2024-02-04T12:22:06;99744.88;;;10.98;100.00
21545;BME280;10933;50.754;11.508;2024-02-04T12:24:36;99733.41;;;10.91;100.00
21545;BME280;10933;50.754;11.508;2024-02-04T12:27:06;99718.44;;;10.61;100.00
21545;BME280;10933;50.754;11.508;2024-02-04T12:29:33;99714.50;;;10.52;100.00
21545;BME280;10933;50.754;11.508;2024-02-04T12:32:00;99693.84;;;10.41;100.00
21545;BME280;10933;50.754;11.508;2024-02-04T12:34:27;99674.50;;;10.44;100.00
21545;BME280;10933;50.754;11.508;2024-02-04T12:37:00;99665.97;;;10.52;100.00
21545;BME280;10933;50.754;11.508;2024-02-04T12:39:26;99666.31;;;10.39;100.00
21545;BME280;10933;50.754;11.508;2024-02-04T12:41:53;99656.19;;;10.46;100.00
21545;BME280;10933;50.754;11.508;2024-02-04T12:44:19;99644.22;;;10.59;100.00
21545;BME280;10933;50.754;11.508;2024-02-04T12:46:49;99636.69;;;10.61;100.00
21545;BME280;10933;50.754;11.508;2024-02-04T12:49:20;99625.91;;;10.61;100.00
21545;BME280;10933;50.754;11.508;2024-02-04T12:51:49;99633.50;;;10.86;100.00
21545;BME280;10933;50.754;11.508;2024-02-04T12:54:18;99645.19;;;10.70;100.00